Time;durP1;ratioP1;P1;durP2;ratioP2;P2;SDS_P1;SDS_P2;PMS_P1;PMS_P2;Temp;Humidity;BMP_temperature;BMP_pressure;BME280_temperature;BME280_humidity;BME280_pressure;Samples;Min_cycle;Max_cycle;Signal;HPM_P1;HPM_P2
2023/01/28 00:00:07;;;;;;;;;;;;;;;4.73;65.78;98996.06;4971965;28;19929;-88
2023/01/28 00:02:33;;;;;;;;;;;;;;;4.77;65.82;99002.13;4987161;28;19918;-88
2023/01/28 00:04:59;;;;;;;;;;;;;;;4.60;66.39;99007.38;4971922;28;20414;-85
2023/01/28 00:07:24;;;;;;;;;;;;;;;4.66;65.88;99010.00;4972178;28;19922;-85
2023/01/28 00:09:49;;;;;;;;;;;;;;;4.45;66.38;99010.91;4971576;28;20336;-84
2023/01/28 00:12:18;;;;;;;;;;;;;;;4.55;66.14;99016.97;4970295;28;19926;-85
2023/01/28 00:14:45;;;;;;;;;;;;;;;4.72;65.67;99009.13;4970846;28;19918;-84
2023/01/28 00:17:10;;;;;;;;;;;;;;;4.55;66.02;99019.59;4971818;28;19985;-84
2023/01/28 00:19:36;;;;;;;;;;;;;;;4.65;66.51;99021.34;4971985;28;19918;-85
2023/01/28 00:22:03;;;;;;;;;;;;;;;4.45;66.20;99016.13;4971025;28;19918;-87
2023/01/28 00:24:28;;;;;;;;;;;;;;;4.61;66.07;99025.69;4971689;28;19930;-85
2023/01/28 00:26:54;;;;;;;;;;;;;;;4.63;66.21;99023.94;4971772;28;19925;-84
2023/01/28 00:29:19;;;;;;;;;;;;;;;4.78;66.03;99017.81;4972053;28;19925;-88
2023/01/28 00:31:44;;;;;;;;;;;;;;;4.77;65.96;99034.38;4954600;28;19922;-85
2023/01/28 00:34:10;;;;;;;;;;;;;;;4.73;66.75;99037.00;4971171;28;19977;-85
2023/01/28 00:36:38;;;;;;;;;;;;;;;4.45;66.89;99032.66;4970093;28;19929;-86
2023/01/28 00:39:04;;;;;;;;;;;;;;;4.34;67.26;99034.44;4970810;28;19922;-85
2023/01/28 00:41:29;;;;;;;;;;;;;;;4.43;66.53;99038.75;4953582;28;19984;-87
2023/01/28 00:43:55;;;;;;;;;;;;;;;4.40;67.04;99047.47;4986370;28;19926;-85
2023/01/28 00:46:26;;;;;;;;;;;;;;;4.38;67.55;99045.72;4971689;28;20418;-85
2023/01/28 00:48:52;;;;;;;;;;;;;;;4.41;67.73;99050.94;4954754;28;19918;-83
2023/01/28 00:51:19;;;;;;;;;;;;;;;4.41;67.28;99053.56;4972058;28;20435;-84
2023/01/28 00:53:45;;;;;;;;;;;;;;;4.53;67.46;99047.47;4954208;28;19950;-85
2023/01/28 00:56:12;;;;;;;;;;;;;;;4.50;66.62;99042.25;4971849;28;20013;-85
2023/01/28 00:58:38;;;;;;;;;;;;;;;4.28;66.98;99056.19;4972304;28;19918;-84
2023/01/28 01:01:19;;;;;;;;;;;;;;;4.32;67.70;99049.19;4954997;28;19922;-85
2023/01/28 01:03:45;;;;;;;;;;;;;;;4.27;67.57;99049.19;4971768;28;19974;-84
2023/01/28 01:06:12;;;;;;;;;;;;;;;4.26;67.67;99054.41;4971759;28;19926;-83
2023/01/28 01:08:41;;;;;;;;;;;;;;;4.43;67.17;99049.19;4971669;28;19941;-84
2023/01/28 01:11:08;;;;;;;;;;;;;;;4.17;66.88;99052.69;4972215;28;19922;-85
2023/01/28 01:13:36;;;;;;;;;;;;;;;4.29;67.56;99046.59;4971847;28;19925;-86
2023/01/28 01:16:06;;;;;;;;;;;;;;;4.32;67.44;99040.50;4954673;28;19941;-85
2023/01/28 01:18:33;;;;;;;;;;;;;;;4.33;67.74;99050.09;4970579;28;20384;-84
2023/01/28 01:20:58;;;;;;;;;;;;;;;4.25;67.09;99037.91;4970531;28;19930;-84
2023/01/28 01:23:27;;;;;;;;;;;;;;;4.33;67.24;99030.06;4970912;28;20377;-85
2023/01/28 01:25:53;;;;;;;;;;;;;;;4.32;67.35;99036.16;4970633;28;19985;-84
2023/01/28 01:28:19;;;;;;;;;;;;;;;4.26;67.19;99039.66;4970241;28;19922;-85
2023/01/28 01:30:45;;;;;;;;;;;;;;;4.24;66.89;99030.94;4969734;28;19989;-85
2023/01/28 01:33:10;;;;;;;;;;;;;;;4.35;66.88;99038.75;4970236;28;19918;-86
2023/01/28 01:35:37;;;;;;;;;;;;;;;4.28;66.68;99039.66;4953292;28;19922;-88
2023/01/28 01:38:03;;;;;;;;;;;;;;;4.31;66.54;99042.25;4971229;28;19944;-85
2023/01/28 01:40:29;;;;;;;;;;;;;;;4.34;66.22;99034.44;4970711;28;20312;-85
2023/01/28 01:42:54;;;;;;;;;;;;;;;4.22;66.99;99047.47;4952994;28;19925;-85
2023/01/28 01:45:22;;;;;;;;;;;;;;;4.24;66.75;99048.34;4969859;28;19922;-86
2023/01/28 01:47:48;;;;;;;;;;;;;;;4.26;66.33;99059.66;4969801;28;19988;-85
2023/01/28 01:50:13;;;;;;;;;;;;;;;4.26;65.35;99043.97;4970343;28;20693;-86
2023/01/28 01:52:40;;;;;;;;;;;;;;;4.30;65.75;99050.94;4969643;28;19922;-87
2023/01/28 01:55:08;;;;;;;;;;;;;;;4.28;66.17;99056.19;4953377;28;19922;-84
2023/01/28 01:57:35;;;;;;;;;;;;;;;4.34;66.42;99063.16;4968880;28;19924;-85
2023/01/28 02:00:05;;;;;;;;;;;;;;;4.31;66.39;99063.16;4969929;28;20013;-86
2023/01/28 02:02:47;;;;;;;;;;;;;;;4.34;66.23;99062.25;4970389;28;19934;-84
2023/01/28 02:05:14;;;;;;;;;;;;;;;4.37;65.55;99070.97;4969495;28;19981;-84
2023/01/28 02:07:40;;;;;;;;;;;;;;;4.29;65.33;99064.88;4970361;28;20016;-83
2023/01/28 02:10:07;;;;;;;;;;;;;;;4.35;65.54;99079.69;4969361;28;19993;-84
2023/01/28 02:12:38;;;;;;;;;;;;;;;4.47;65.75;99087.50;4968639;28;20386;-84
2023/01/28 02:15:20;;;;;;;;;;;;;;;4.51;65.56;99086.66;4969744;28;19926;-85
2023/01/28 02:17:46;;;;;;;;;;;;;;;4.50;65.23;99090.13;4968708;28;20025;-85
2023/01/28 02:20:22;;;;;;;;;;;;;;;4.45;65.65;99097.09;4968874;28;20020;-84
2023/01/28 02:23:05;;;;;;;;;;;;;;;4.44;65.42;99098.81;4969117;28;20360;-86
2023/01/28 02:25:39;;;;;;;;;;;;;;;4.53;64.98;99092.75;4968833;28;19977;-85
2023/01/28 02:28:08;;;;;;;;;;;;;;;4.43;64.67;99094.50;4969081;28;19918;-83
2023/01/28 02:30:47;;;;;;;;;;;;;;;4.44;64.62;99092.75;4969561;28;19993;-84
2023/01/28 02:33:33;;;;;;;;;;;;;;;4.64;64.59;99098.81;4969697;28;19922;-87
2023/01/28 02:36:02;;;;;;;;;;;;;;;4.32;64.58;99109.25;4969102;28;19926;-86
2023/01/28 02:38:33;;;;;;;;;;;;;;;4.45;64.67;99104.94;4952790;28;19918;-84
2023/01/28 02:41:05;;;;;;;;;;;;;;;4.50;64.63;99104.94;4968785;28;19929;-83
2023/01/28 02:43:43;;;;;;;;;;;;;;;4.52;64.42;99116.25;4968930;28;19928;-84
2023/01/28 02:48:56;;;;;;;;;;;;;;;4.50;64.19;99118.00;4969172;28;21638;-84
2023/01/28 02:51:42;;;;;;;;;;;;;;;4.34;64.19;99123.22;4968346;28;19981;-84
2023/01/28 02:54:13;;;;;;;;;;;;;;;4.38;64.38;99126.69;4968543;28;19930;-84
2023/01/28 02:56:38;;;;;;;;;;;;;;;4.45;64.21;99131.06;4972109;28;19926;-84
2023/01/28 02:59:32;;;;;;;;;;;;;;;4.41;64.17;99122.31;4972323;28;20385;-84
2023/01/28 03:02:09;;;;;;;;;;;;;;;4.45;64.08;99126.69;4972532;28;19922;-86
2023/01/28 03:04:44;;;;;;;;;;;;;;;4.35;64.15;99122.31;4972662;28;19977;-84
2023/01/28 03:07:11;;;;;;;;;;;;;;;4.52;64.04;99137.16;4972789;28;19985;-85
2023/01/28 03:09:39;;;;;;;;;;;;;;;4.44;63.72;99126.69;4988507;28;19944;-87
2023/01/28 03:36:54;;;;;;;;;;;;;;;4.37;62.91;99140.59;4972792;28;19992;-84
2023/01/28 03:39:25;;;;;;;;;;;;;;;4.50;63.12;99146.72;4973534;28;19921;-85
2023/01/28 03:41:57;;;;;;;;;;;;;;;4.55;62.75;99147.59;4972212;28;20134;-86
2023/01/28 03:47:07;;;;;;;;;;;;;;;4.55;62.35;99147.59;4972106;28;19972;-84
2023/01/28 03:49:33;;;;;;;;;;;;;;;4.60;62.62;99145.84;4955532;28;20599;-85
2023/01/28 03:51:58;;;;;;;;;;;;;;;4.47;62.19;99158.03;4955996;28;19914;-85
2023/01/28 03:54:29;;;;;;;;;;;;;;;4.43;62.92;99159.78;4973434;28;19922;-85
2023/01/28 03:56:54;;;;;;;;;;;;;;;4.55;63.55;99160.66;4973490;28;19961;-86
2023/01/28 03:59:22;;;;;;;;;;;;;;;4.53;62.52;99163.28;4973148;28;19979;-85
2023/01/28 04:01:49;;;;;;;;;;;;;;;4.31;62.62;99157.16;4954505;28;20277;-86
2023/01/28 04:04:21;;;;;;;;;;;;;;;4.54;63.00;99167.63;4973662;28;20016;-86
2023/01/28 04:06:49;;;;;;;;;;;;;;;4.46;62.44;99162.41;4972977;28;19922;-86
2023/01/28 04:09:14;;;;;;;;;;;;;;;4.27;62.87;99171.91;4973457;28;19919;-87
2023/01/28 04:11:40;;;;;;;;;;;;;;;4.31;63.09;99172.81;4973059;28;19929;-85
2023/01/28 04:14:05;;;;;;;;;;;;;;;4.37;62.42;99164.09;4974019;28;19921;-83
2023/01/28 04:16:31;;;;;;;;;;;;;;;4.25;62.98;99176.28;4973961;28;19925;-85
2023/01/28 04:21:59;;;;;;;;;;;;;;;4.24;63.34;99166.69;4973313;28;20033;-86
2023/01/28 04:24:24;;;;;;;;;;;;;;;4.26;63.31;99177.13;4972750;28;20304;-83
2023/01/28 04:26:50;;;;;;;;;;;;;;;4.37;63.60;99166.72;4972095;28;19918;-86
2023/01/28 04:29:15;;;;;;;;;;;;;;;4.36;63.25;99176.31;4972287;28;19924;-86
2023/01/28 04:31:43;;;;;;;;;;;;;;;4.29;63.21;99174.53;4972722;28;20655;-86
2023/01/28 04:34:12;;;;;;;;;;;;;;;4.18;63.82;99176.25;4972020;28;19933;-86
2023/01/28 04:36:37;;;;;;;;;;;;;;;4.32;63.56;99169.31;4954697;28;20294;-86
2023/01/28 04:39:03;;;;;;;;;;;;;;;4.21;63.64;99181.50;4971753;28;19933;-86
2023/01/28 04:41:28;;;;;;;;;;;;;;;4.10;63.83;99178.84;4971133;28;19918;-87
2023/01/28 04:43:53;;;;;;;;;;;;;;;3.99;64.04;99186.66;4970571;28;20384;-84
2023/01/28 04:46:19;;;;;;;;;;;;;;;4.21;63.85;99189.31;4970424;28;19922;-85
2023/01/28 04:48:44;;;;;;;;;;;;;;;4.19;63.47;99189.31;4969745;28;19976;-84
2023/01/28 04:51:10;;;;;;;;;;;;;;;4.12;63.79;99198.00;4969831;28;19966;-83
2023/01/28 04:53:35;;;;;;;;;;;;;;;4.07;63.54;99199.72;4951298;28;19922;-85
2023/01/28 04:56:00;;;;;;;;;;;;;;;4.20;63.65;99198.00;4970290;28;19972;-85
2023/01/28 04:58:26;;;;;;;;;;;;;;;4.22;63.18;99204.13;4969626;28;19942;-84
2023/01/28 05:00:58;;;;;;;;;;;;;;;4.06;63.73;99213.63;4970102;28;19926;-85
2023/01/28 05:03:23;;;;;;;;;;;;;;;4.12;63.65;99211.03;4971691;28;20384;-84
2023/01/28 05:05:52;;;;;;;;;;;;;;;4.07;64.14;99218.84;4954541;28;19975;-84
2023/01/28 05:08:20;;;;;;;;;;;;;;;3.92;64.29;99217.09;4971095;28;19929;-86
2023/01/28 05:10:46;;;;;;;;;;;;;;;3.91;64.14;99222.28;4971550;28;19926;-85
2023/01/28 05:13:11;;;;;;;;;;;;;;;4.05;63.82;99225.81;4971550;28;20531;-83
2023/01/28 05:15:36;;;;;;;;;;;;;;;3.89;64.26;99226.63;4969287;28;19918;-83
2023/01/28 05:18:02;;;;;;;;;;;;;;;3.96;64.10;99223.19;4970932;28;19918;-84
2023/01/28 05:20:33;;;;;;;;;;;;;;;3.93;64.46;99228.38;4971008;28;20012;-85
2023/01/28 05:22:58;;;;;;;;;;;;;;;4.09;64.11;99224.97;4971002;28;19925;-83
2023/01/28 05:25:23;;;;;;;;;;;;;;;4.00;64.37;99232.78;4968458;28;20401;-82
2023/01/28 05:27:50;;;;;;;;;;;;;;;4.05;64.02;99240.63;4950918;28;19933;-84
2023/01/28 05:30:15;;;;;;;;;;;;;;;4.25;63.62;99236.34;4951334;28;20336;-83
2023/01/28 05:32:41;;;;;;;;;;;;;;;4.18;63.62;99238.91;4969030;28;19918;-83
2023/01/28 05:35:06;;;;;;;;;;;;;;;4.19;63.87;99240.69;4950471;28;19930;-83
2023/01/28 05:37:32;;;;;;;;;;;;;;;4.04;63.89;99244.94;4968765;28;19929;-83
2023/01/28 05:39:57;;;;;;;;;;;;;;;4.32;63.77;99242.44;4968041;28;20334;-85
2023/01/28 05:42:22;;;;;;;;;;;;;;;4.30;63.45;99252.03;4968495;28;20452;-83
2023/01/28 05:44:47;;;;;;;;;;;;;;;4.22;63.48;99251.13;4968090;28;19922;-82
2023/01/28 05:47:13;;;;;;;;;;;;;;;4.23;63.53;99250.25;4968497;28;19930;-83
2023/01/28 05:49:38;;;;;;;;;;;;;;;4.29;63.42;99261.59;4968327;28;20627;-84
2023/01/28 05:52:03;;;;;;;;;;;;;;;4.28;63.63;99265.06;4968600;28;19922;-84
2023/01/28 05:54:29;;;;;;;;;;;;;;;4.20;63.50;99265.91;4969622;28;19973;-84
2023/01/28 05:56:54;;;;;;;;;;;;;;;4.25;63.28;99267.66;4968072;28;20392;-85
2023/01/28 05:59:19;;;;;;;;;;;;;;;4.27;62.90;99276.38;4968848;28;19926;-83
2023/01/28 06:01:45;;;;;;;;;;;;;;;4.28;63.18;99272.03;4968520;28;19957;-86
2023/01/28 06:04:10;;;;;;;;;;;;;;;4.26;63.38;99290.31;4968508;28;19922;-86
2023/01/28 06:06:36;;;;;;;;;;;;;;;4.34;63.47;99286.84;4969238;28;19973;-85
2023/01/28 06:09:01;;;;;;;;;;;;;;;4.46;63.31;99290.38;4969146;28;19922;-85
2023/01/28 06:11:26;;;;;;;;;;;;;;;4.42;63.52;99290.38;4968959;28;20680;-85
2023/01/28 06:13:52;;;;;;;;;;;;;;;4.38;62.71;99302.53;4968559;28;20400;-85
2023/01/28 06:16:17;;;;;;;;;;;;;;;4.36;63.62;99300.78;4970034;28;20030;-85
2023/01/28 06:18:43;;;;;;;;;;;;;;;4.45;62.78;99306.91;4969615;28;19965;-85
2023/01/28 06:21:09;;;;;;;;;;;;;;;4.41;63.15;99312.13;4970213;28;20385;-84
2023/01/28 06:23:34;;;;;;;;;;;;;;;4.39;63.30;99311.25;4968641;28;19924;-86
2023/01/28 06:25:59;;;;;;;;;;;;;;;4.51;62.94;99321.75;4969601;28;19926;-84
2023/01/28 06:28:25;;;;;;;;;;;;;;;4.44;62.60;99319.97;4968542;28;20451;-84
2023/01/28 06:30:50;;;;;;;;;;;;;;;4.51;62.23;99320.84;4972180;28;20012;-85
2023/01/28 06:33:16;;;;;;;;;;;;;;;4.35;62.68;99326.00;4973375;28;19981;-85
2023/01/28 06:35:41;;;;;;;;;;;;;;;4.38;63.02;99331.25;4973165;28;19933;-86
2023/01/28 06:38:07;;;;;;;;;;;;;;;4.37;62.58;99337.38;4983010;28;19926;-85
2023/01/28 06:40:32;;;;;;;;;;;;;;;4.35;63.60;99333.00;4992488;28;19960;-85
2023/01/28 06:42:58;;;;;;;;;;;;;;;4.39;63.12;99335.63;4980141;28;19930;-85
2023/01/28 06:45:23;;;;;;;;;;;;;;;4.56;62.96;99340.91;4972322;28;19956;-86
2023/01/28 06:47:49;;;;;;;;;;;;;;;4.38;62.95;99340.84;4972589;28;20379;-85
2023/01/28 06:50:14;;;;;;;;;;;;;;;4.40;62.89;99342.59;4971388;28;20021;-86
2023/01/28 06:52:45;;;;;;;;;;;;;;;4.62;62.59;99361.84;4972665;28;19927;-86
2023/01/28 06:55:10;;;;;;;;;;;;;;;4.43;63.21;99350.44;4968956;28;19922;-88
2023/01/28 06:57:44;;;;;;;;;;;;;;;4.50;63.65;99355.69;4979154;28;19992;-85
2023/01/28 07:00:14;;;;;;;;;;;;;;;4.55;63.26;99353.97;4968233;28;20316;-94
2023/01/28 07:02:40;;;;;;;;;;;;;;;4.39;63.24;99363.50;4973768;28;19922;-84
2023/01/28 07:05:05;;;;;;;;;;;;;;;4.63;63.05;99368.81;4973788;28;19969;-84
2023/01/28 07:07:31;;;;;;;;;;;;;;;4.56;63.43;99363.56;4968966;28;19961;-83
2023/01/28 07:09:59;;;;;;;;;;;;;;;4.52;62.86;99365.25;4974014;28;19922;-85
2023/01/28 07:12:46;;;;;;;;;;;;;;;4.85;63.80;99366.28;4973811;28;19944;-85
2023/01/28 07:15:13;;;;;;;;;;;;;;;4.65;62.85;99364.47;4973905;28;19961;-83
2023/01/28 07:17:50;;;;;;;;;;;;;;;4.87;63.27;99376.72;4968560;28;19929;-87
2023/01/28 07:20:16;;;;;;;;;;;;;;;4.87;62.81;99376.72;4972216;28;19922;-86
2023/01/28 07:22:51;;;;;;;;;;;;;;;4.71;63.66;99375.78;4971648;28;20656;-84
2023/01/28 07:25:18;;;;;;;;;;;;;;;4.76;63.45;99381.94;4967963;28;20504;-84
2023/01/28 07:27:59;;;;;;;;;;;;;;;4.84;63.47;99388.03;4973538;28;20001;-81
2023/01/28 07:30:27;;;;;;;;;;;;;;;4.73;64.03;99385.38;4981143;28;19965;-87
2023/01/28 07:32:56;;;;;;;;;;;;;;;5.13;62.69;99389.88;4975447;28;19914;-84
2023/01/28 07:35:22;;;;;;;;;;;;;;;4.81;62.89;99386.28;4972002;28;19926;-83
2023/01/28 07:37:58;;;;;;;;;;;;;;;4.83;63.31;99391.50;4972506;28;19918;-85
2023/01/28 07:40:24;;;;;;;;;;;;;;;4.79;62.48;99403.72;4972924;28;19922;-83
2023/01/28 07:42:54;;;;;;;;;;;;;;;4.86;63.60;99401.13;4973051;28;19925;-84
2023/01/28 07:45:19;;;;;;;;;;;;;;;4.84;63.31;99407.19;4969290;28;20396;-85
2023/01/28 07:48:06;;;;;;;;;;;;;;;5.00;63.03;99404.63;4959020;28;20016;-85
2023/01/28 07:50:39;;;;;;;;;;;;;;;4.78;62.46;99403.69;4971265;28;19922;-84
2023/01/28 07:53:06;;;;;;;;;;;;;;;4.81;63.03;99403.72;4964741;28;19918;-83
2023/01/28 07:55:34;;;;;;;;;;;;;;;4.74;62.63;99404.53;4971263;28;19928;-88
2023/01/28 07:58:00;;;;;;;;;;;;;;;4.54;63.32;99404.47;4959307;28;20360;-87
2023/01/28 08:00:27;;;;;;;;;;;;;;;4.54;63.21;99405.34;4952297;28;21132;-83
2023/01/28 08:02:59;;;;;;;;;;;;;;;4.68;62.90;99415.88;4951865;28;19921;-84
2023/01/28 08:05:30;;;;;;;;;;;;;;;4.90;61.78;99415.94;4971644;28;19922;-89
2023/01/28 08:07:56;;;;;;;;;;;;;;;4.65;62.16;99421.06;4966059;28;20716;-85
2023/01/28 08:10:21;;;;;;;;;;;;;;;4.69;62.10;99417.59;4964469;28;19918;-82
2023/01/28 08:12:54;;;;;;;;;;;;;;;4.64;62.65;99432.38;4952248;28;19945;-83
2023/01/28 08:15:19;;;;;;;;;;;;;;;4.83;62.14;99433.34;4951322;28;19915;-83
2023/01/28 08:17:45;;;;;;;;;;;;;;;4.96;62.36;99436.88;4963432;28;20036;-84
2023/01/28 08:20:11;;;;;;;;;;;;;;;4.92;62.06;99438.59;4968766;28;19922;-82
2023/01/28 08:22:36;;;;;;;;;;;;;;;5.34;62.21;99441.34;4950942;28;19976;-86
2023/01/28 08:25:01;;;;;;;;;;;;;;;5.34;60.48;99434.34;4956551;28;20449;-86
2023/01/28 08:27:27;;;;;;;;;;;;;;;5.66;61.26;99437.91;4950311;28;20017;-87
2023/01/28 08:29:52;;;;;;;;;;;;;;;5.76;60.48;99436.16;4954155;28;19918;-84
2023/01/28 08:32:17;;;;;;;;;;;;;;;5.84;60.84;99437.91;4950421;28;19922;-84
2023/01/28 08:34:43;;;;;;;;;;;;;;;6.25;59.59;99450.13;4954163;28;20764;-84
2023/01/28 08:37:08;;;;;;;;;;;;;;;5.95;59.52;99448.38;4950600;28;19923;-85
2023/01/28 08:39:33;;;;;;;;;;;;;;;6.12;58.47;99451.03;4954803;28;19962;-84
2023/01/28 08:41:59;;;;;;;;;;;;;;;6.17;59.03;99445.78;4956772;28;19926;-83
2023/01/28 08:44:24;;;;;;;;;;;;;;;6.37;58.73;99446.63;4965576;28;19938;-84
2023/01/28 08:46:49;;;;;;;;;;;;;;;6.19;58.51;99460.59;4960030;28;19961;-83
2023/01/28 08:49:15;;;;;;;;;;;;;;;6.36;59.08;99452.72;4956285;28;19925;-84
2023/01/28 08:51:40;;;;;;;;;;;;;;;6.12;58.00;99450.13;4951922;28;20021;-84
2023/01/28 08:54:05;;;;;;;;;;;;;;;5.80;59.65;99451.00;4967320;28;20052;-84
2023/01/28 08:56:31;;;;;;;;;;;;;;;5.83;59.78;99451.88;4969130;28;20305;-84
2023/01/28 08:58:56;;;;;;;;;;;;;;;5.89;59.35;99451.88;4950329;28;19926;-85
2023/01/28 09:01:22;;;;;;;;;;;;;;;6.00;58.93;99451.91;4965179;28;19926;-85
2023/01/28 09:03:47;;;;;;;;;;;;;;;6.11;60.00;99462.38;4968508;28;19926;-87
2023/01/28 09:06:12;;;;;;;;;;;;;;;5.95;59.41;99452.72;4968937;28;20736;-85
2023/01/28 09:08:38;;;;;;;;;;;;;;;5.91;59.03;99457.97;4968702;28;20699;-85
2023/01/28 09:11:03;;;;;;;;;;;;;;;5.83;59.09;99456.22;4967882;28;19918;-84
2023/01/28 09:13:29;;;;;;;;;;;;;;;5.93;59.37;99452.72;4969080;28;19928;-83
2023/01/28 09:15:54;;;;;;;;;;;;;;;6.48;60.99;99454.47;4968643;28;19976;-85
2023/01/28 09:18:20;;;;;;;;;;;;;;;6.62;59.42;99459.66;4979959;28;20289;-86
2023/01/28 09:20:45;;;;;;;;;;;;;;;7.21;58.69;99449.81;4988145;28;19949;-85
2023/01/28 09:23:11;;;;;;;;;;;;;;;7.13;57.31;99443.75;4965132;28;19929;-84
2023/01/28 09:25:36;;;;;;;;;;;;;;;7.07;58.42;99454.25;4949155;28;19922;-85
2023/01/28 09:28:02;;;;;;;;;;;;;;;7.09;58.07;99456.00;4949494;29;19990;-84
2023/01/28 09:30:28;;;;;;;;;;;;;;;6.74;56.82;99461.38;4949399;29;20500;-85
2023/01/28 09:32:54;;;;;;;;;;;;;;;6.54;58.11;99451.81;4953246;28;19926;-86
2023/01/28 09:35:19;;;;;;;;;;;;;;;6.62;56.25;99457.91;4986235;28;19926;-84
2023/01/28 09:37:45;;;;;;;;;;;;;;;6.49;57.03;99458.84;4950016;28;20324;-83
2023/01/28 09:40:19;;;;;;;;;;;;;;;6.58;57.07;99457.91;4950109;28;19926;-92
2023/01/28 09:42:54;;;;;;;;;;;;;;;6.22;57.67;99462.34;4949082;28;19924;-83
2023/01/28 09:45:25;;;;;;;;;;;;;;;6.63;57.76;99454.41;4947348;29;20535;-82
2023/01/28 09:47:52;;;;;;;;;;;;;;;6.35;56.89;99456.25;4949043;28;20029;-81
2023/01/28 09:50:22;;;;;;;;;;;;;;;6.40;58.00;99456.22;4948291;28;19919;-84
2023/01/28 09:52:47;;;;;;;;;;;;;;;6.61;58.58;99457.91;4942074;28;20444;-82
2023/01/28 09:55:22;;;;;;;;;;;;;;;6.56;57.45;99457.91;4948799;28;20025;-83
2023/01/28 09:57:50;;;;;;;;;;;;;;;6.80;58.48;99450.88;4948520;28;20428;-83
2023/01/28 10:00:18;;;;;;;;;;;;;;;6.84;58.00;99459.59;4949040;28;19922;-83
2023/01/28 10:03:00;;;;;;;;;;;;;;;7.03;56.64;99456.03;4948877;28;19926;-83
2023/01/28 10:05:29;;;;;;;;;;;;;;;7.04;55.21;99460.38;4950418;28;19923;-82
2023/01/28 10:08:18;;;;;;;;;;;;;;;6.62;56.83;99451.81;4955086;28;19978;-85
2023/01/28 10:10:47;;;;;;;;;;;;;;;6.93;58.05;99456.94;4944874;28;19948;-84
2023/01/28 10:13:19;;;;;;;;;;;;;;;6.57;55.70;99470.16;4937947;28;19977;-82
2023/01/28 10:15:49;;;;;;;;;;;;;;;6.45;56.06;99465.81;4950421;29;19922;-83
2023/01/28 10:18:19;;;;;;;;;;;;;;;6.61;56.33;99463.16;4935933;29;19930;-84
2023/01/28 10:20:44;;;;;;;;;;;;;;;6.60;56.45;99462.28;4935551;29;19945;-83
2023/01/28 10:23:18;;;;;;;;;;;;;;;6.52;56.33;99448.34;4950495;28;20405;-81
2023/01/28 10:25:47;;;;;;;;;;;;;;;6.81;56.56;99460.47;4944169;29;19933;-83
2023/01/28 10:28:24;;;;;;;;;;;;;;;6.84;55.32;99459.59;4938169;28;19923;-82
2023/01/28 10:30:50;;;;;;;;;;;;;;;6.92;55.29;99457.81;4936109;29;19977;-81
2023/01/28 10:33:21;;;;;;;;;;;;;;;6.92;55.12;99461.31;4935663;29;20824;-84
2023/01/28 10:35:47;;;;;;;;;;;;;;;6.78;55.63;99464.00;4946868;28;20376;-83
2023/01/28 10:38:22;;;;;;;;;;;;;;;6.91;56.86;99458.72;4954835;28;19922;-84
2023/01/28 10:40:48;;;;;;;;;;;;;;;7.09;56.18;99462.97;4955373;29;19922;-83
2023/01/28 10:43:18;;;;;;;;;;;;;;;7.42;54.88;99448.81;4955101;28;19929;-83
2023/01/28 10:45:56;;;;;;;;;;;;;;;7.37;54.76;99455.88;4955024;29;20316;-82
2023/01/28 10:48:23;;;;;;;;;;;;;;;7.25;55.02;99462.03;4953699;28;20531;-83
2023/01/28 10:50:51;;;;;;;;;;;;;;;7.56;54.91;99453.97;4954298;28;19922;-83
2023/01/28 10:53:16;;;;;;;;;;;;;;;7.17;55.55;99456.84;4954313;29;19928;-83
2023/01/28 10:55:48;;;;;;;;;;;;;;;7.15;56.16;99455.09;4954039;28;20393;-82
2023/01/28 10:58:17;;;;;;;;;;;;;;;7.22;54.24;99450.69;4953264;29;20004;-80
2023/01/28 11:00:42;;;;;;;;;;;;;;;7.41;54.60;99456.72;4954814;29;19918;-82
2023/01/28 11:03:15;;;;;;;;;;;;;;;7.47;54.95;99454.03;4953158;29;20845;-82
2023/01/28 11:05:49;;;;;;;;;;;;;;;7.52;52.55;99461.03;4954796;29;19922;-80
2023/01/28 11:08:15;;;;;;;;;;;;;;;7.28;54.64;99458.53;4956243;28;20013;-81
2023/01/28 11:10:41;;;;;;;;;;;;;;;7.17;54.15;99455.97;4974830;28;19969;-80
2023/01/28 11:13:21;;;;;;;;;;;;;;;7.17;54.70;99463.84;4972772;28;19961;-86
2023/01/28 11:15:47;;;;;;;;;;;;;;;7.15;54.23;99461.22;4975238;28;19918;-83
2023/01/28 11:18:16;;;;;;;;;;;;;;;7.05;54.49;99463.91;4970708;28;19985;-84
2023/01/28 11:20:44;;;;;;;;;;;;;;;6.91;54.19;99462.19;4971308;28;19918;-83
2023/01/28 11:23:21;;;;;;;;;;;;;;;7.03;56.29;99461.28;4970955;28;19919;-82
2023/01/28 11:25:47;;;;;;;;;;;;;;;6.99;55.67;99456.91;4970857;28;19918;-82
2023/01/28 11:28:18;;;;;;;;;;;;;;;6.89;56.18;99455.19;4970991;28;19944;-80
2023/01/28 11:30:49;;;;;;;;;;;;;;;7.00;56.95;99450.81;4971808;28;19942;-84
2023/01/28 11:33:16;;;;;;;;;;;;;;;7.46;56.73;99458.44;4970997;28;19933;-83
2023/01/28 11:35:41;;;;;;;;;;;;;;;6.97;55.49;99456.06;4970809;28;19932;-84
2023/01/28 11:38:17;;;;;;;;;;;;;;;7.09;57.14;99452.50;4970611;28;19926;-84
2023/01/28 11:40:53;;;;;;;;;;;;;;;7.14;55.30;99455.97;4970833;28;19928;-83
2023/01/28 11:43:20;;;;;;;;;;;;;;;7.26;54.68;99453.31;4964460;28;19975;-82
2023/01/28 11:45:51;;;;;;;;;;;;;;;7.25;54.63;99455.94;4959346;28;19923;-83
2023/01/28 11:48:18;;;;;;;;;;;;;;;6.78;55.51;99463.09;4962889;28;19922;-81
2023/01/28 11:50:50;;;;;;;;;;;;;;;6.73;56.20;99464.88;4969092;28;20426;-84
2023/01/28 11:53:27;;;;;;;;;;;;;;;7.07;55.79;99457.75;4960558;28;19929;-80
2023/01/28 11:55:52;;;;;;;;;;;;;;;6.61;55.55;99466.66;4961289;28;19926;-80
2023/01/28 11:58:27;;;;;;;;;;;;;;;6.72;56.14;99470.97;4964262;28;19926;-82
2023/01/28 12:01:07;;;;;;;;;;;;;;;6.70;55.71;99472.75;4962082;28;19926;-87
2023/01/28 12:03:33;;;;;;;;;;;;;;;6.47;56.90;99473.66;4957861;28;19957;-83
2023/01/28 12:06:13;;;;;;;;;;;;;;;6.82;57.24;99473.56;4959833;28;19965;-83
2023/01/28 12:08:51;;;;;;;;;;;;;;;6.82;56.52;99472.72;4964936;28;19965;-82
2023/01/28 12:14:42;;;;;;;;;;;;;;;6.34;57.72;99478.06;4959733;28;19930;-82
2023/01/28 12:17:22;;;;;;;;;;;;;;;6.59;58.18;99478.00;4955597;28;20712;-82
2023/01/28 12:19:50;;;;;;;;;;;;;;;7.01;57.75;99483.13;4961389;28;19933;-83
2023/01/28 12:22:22;;;;;;;;;;;;;;;7.28;57.83;99483.00;4954696;28;19957;-82
2023/01/28 12:24:59;;;;;;;;;;;;;;;6.92;57.37;99484.03;4959016;28;19929;-86
2023/01/28 12:27:49;;;;;;;;;;;;;;;6.75;57.97;99490.22;4965370;28;20309;-81
2023/01/28 12:30:21;;;;;;;;;;;;;;;6.80;58.35;99484.97;4965209;28;19973;-83
2023/01/28 12:32:52;;;;;;;;;;;;;;;6.80;58.33;99488.44;4968480;28;19925;-81
2023/01/28 12:35:25;;;;;;;;;;;;;;;6.71;58.75;99487.63;4950462;28;19944;-81
2023/01/28 12:37:50;;;;;;;;;;;;;;;6.73;58.46;99486.72;4967851;28;19926;-82
2023/01/28 12:40:25;;;;;;;;;;;;;;;6.61;58.40;99495.50;4969592;28;20308;-82
2023/01/28 12:42:58;;;;;;;;;;;;;;;6.17;59.40;99496.41;4980701;28;19922;-83
2023/01/28 12:45:30;;;;;;;;;;;;;;;6.25;59.23;99497.28;4962415;28;19948;-86
2023/01/28 12:48:06;;;;;;;;;;;;;;;6.16;59.59;99504.28;4967727;28;20356;-81
2023/01/28 12:50:35;;;;;;;;;;;;;;;6.43;60.33;99495.53;4964736;28;19926;-82
2023/01/28 12:53:04;;;;;;;;;;;;;;;6.57;60.15;99499.00;4942425;28;20336;-81
2023/01/28 12:55:32;;;;;;;;;;;;;;;6.35;59.27;99510.38;4945264;28;20343;-80
2023/01/28 12:57:58;;;;;;;;;;;;;;;6.30;60.34;99505.13;4955772;28;19923;-82
2023/01/28 13:00:33;;;;;;;;;;;;;;;6.07;61.07;99511.25;4948036;28;20491;-82
2023/01/28 13:03:17;;;;;;;;;;;;;;;6.12;61.21;99510.38;4962474;28;19915;-83
2023/01/28 13:05:47;;;;;;;;;;;;;;;6.20;61.43;99503.41;4947807;28;19928;-81
2023/01/28 13:08:28;;;;;;;;;;;;;;;6.32;61.49;99510.38;4955708;28;20328;-82
2023/01/28 13:10:55;;;;;;;;;;;;;;;6.48;61.50;99513.88;4970069;28;19976;-84
2023/01/28 13:13:28;;;;;;;;;;;;;;;6.28;60.81;99512.13;4968748;28;20388;-83
2023/01/28 13:15:54;;;;;;;;;;;;;;;5.95;62.03;99516.47;4966438;28;19926;-84
2023/01/28 13:18:31;;;;;;;;;;;;;;;5.88;62.65;99523.41;4968203;28;19926;-80
2023/01/28 13:20:56;;;;;;;;;;;;;;;6.02;61.83;99519.97;4949746;28;20725;-81
2023/01/28 13:23:35;;;;;;;;;;;;;;;6.11;62.34;99519.97;4950041;28;19950;-84
2023/01/28 13:26:11;;;;;;;;;;;;;;;6.18;62.26;99524.34;4963909;28;19926;-81
2023/01/28 13:28:36;;;;;;;;;;;;;;;6.20;62.03;99529.59;4963136;28;19922;-81
2023/01/28 13:31:04;;;;;;;;;;;;;;;6.40;62.03;99532.22;4964145;28;20371;-88
2023/01/28 13:33:34;;;;;;;;;;;;;;;6.31;62.50;99535.69;4966623;28;19930;-80
2023/01/28 13:36:02;;;;;;;;;;;;;;;6.34;62.08;99533.09;4966963;28;19926;-80
2023/01/28 13:38:28;;;;;;;;;;;;;;;6.04;62.78;99529.59;4965212;28;19926;-81
2023/01/28 13:41:03;;;;;;;;;;;;;;;5.95;63.08;99540.03;4967215;28;19941;-80